Карточка аэропорта UATT

Внимание!
Информация на этой странице в стадии наполнения.
Если вы не увидели какой-то информации, или заметили неточность - пожалуйста сообщите нам!
Спасибо!
Команда RU-STAFF
Название аэропортаАктобе
Название аэропорта (англ.)Aktobe
Превышение738 ft. (224.9 m.)
Координаты50°14.748', 57°12.402'
Высота перехода10000ft
Эшелон переходаFL120, QNH<733:FL130
Коды ответчика3440-3447, 3540-3547
Зона ОрВДАктобе РПИ (UATT)
Данные METARUATT 161100Z 26008MPS 9000 -SHRA SCT024CB OVC030 14/12 Q1008 NOSIG RMK QFE736/0982
Проноз погоды (TAF)UATT 160504Z 1606/1706 22010MPS 3100 -SHRA BR BKN007 BKN030CB TX16/1611Z TN09/1700Z TEMPO 1606/1609 24016MPS 2000 TSRA BKN004 BKN015CB BECMG 1609/1610 BKN011 BKN020CB TEMPO 1609/1615 24016MPS 2000 TSRA BKN005 BKN015CB BECMG 1615/1616 23005MPS TEMPO 1620/1703 1000 BKN003 BKN015CB
NOTAMshow/hide NOTAM
AWOS   TABLE

Информация о ВПП

ВПП Длина ВПП (м.) Покрытие Курс ВПП Частота ILS
133202Бетон135111.7
313202Бетон315111.7

Диспетчерские позиции




Спутниковое изображение